Time;durP1;ratioP1;P1;durP2;ratioP2;P2;SDS_P1;SDS_P2;PMS_P1;PMS_P2;Temp;Humidity;BMP_temperature;BMP_pressure;BME280_temperature;BME280_humidity;BME280_pressure;Samples;Min_cycle;Max_cycle;Signal;HPM_P1;HPM_P2
2022/05/22 00:02:21;;;;;;;6.50;1.20;;;;;;;21.74;34.73;99822.53;117379;1184;23541;-50
2022/05/22 00:04:49;;;;;;;5.50;1.20;;;;;;;21.65;34.85;99821.02;117454;1185;23550;-50
2022/05/22 00:07:18;;;;;;;9.00;1.30;;;;;;;21.57;34.88;99825.40;117443;1186;22699;-55
2022/05/22 00:09:46;;;;;;;6.40;1.10;;;;;;;21.48;34.92;99828.86;117332;1184;21865;-50
2022/05/22 00:12:15;;;;;;;5.40;1.20;;;;;;;21.37;34.99;99834.04;117194;1186;23567;-56
2022/05/22 00:14:43;;;;;;;4.00;1.00;;;;;;;21.27;35.04;99843.08;117281;1188;23528;-50
2022/05/22 00:17:11;;;;;;;7.60;1.50;;;;;;;21.17;35.10;99849.44;117494;1186;21846;-50
2022/05/22 00:19:40;;;;;;;4.20;1.30;;;;;;;21.07;35.30;99855.45;117402;1183;21854;-49
2022/05/22 00:22:08;;;;;;;7.30;2.00;;;;;;;20.98;35.37;99857.48;117391;1186;23560;-56
2022/05/22 00:24:37;;;;;;;5.90;1.30;;;;;;;20.90;35.57;99856.73;117384;1185;21884;-50
2022/05/22 00:27:05;;;;;;;4.30;1.10;;;;;;;20.78;35.61;99849.05;117393;1186;24138;-55
2022/05/22 00:29:34;;;;;;;5.70;1.30;;;;;;;20.68;35.73;99829.17;117546;1185;21853;-55
2022/05/22 00:32:03;;;;;;;7.00;1.70;;;;;;;20.63;35.80;99813.58;117441;1185;23560;-54
2022/05/22 00:34:32;;;;;;;3.80;1.30;;;;;;;20.65;35.90;99797.45;117376;1185;22832;-55
2022/05/22 00:37:00;;;;;;;9.50;2.30;;;;;;;20.67;35.92;99803.64;117359;1185;21858;-50
2022/05/22 00:39:28;;;;;;;3.50;1.20;;;;;;;20.65;36.01;99802.91;117423;1176;23544;-56
2022/05/22 00:41:57;;;;;;;5.70;1.00;;;;;;;20.63;36.05;99800.77;117370;1185;23566;-50
2022/05/22 00:44:25;;;;;;;9.30;1.70;;;;;;;20.63;36.05;99802.41;117416;1185;21849;-55
2022/05/22 00:46:53;;;;;;;14.10;1.50;;;;;;;20.63;36.12;99805.95;117445;1179;23611;-51
2022/05/22 00:49:27;;;;;;;6.40;1.30;;;;;;;20.62;36.15;99805.66;117489;1186;21852;-51
2022/05/22 00:52:07;;;;;;;5.30;1.30;;;;;;;20.61;36.18;99804.46;117355;1184;21921;-51
2022/05/22 00:54:41;;;;;;;4.80;1.10;;;;;;;20.60;36.27;99802.73;117407;1185;22420;-56
2022/05/22 00:57:32;;;;;;;4.20;1.10;;;;;;;20.57;36.30;99801.67;117509;1185;21875;-51
2022/05/22 01:00:07;;;;;;;6.40;1.50;;;;;;;20.52;36.33;99794.51;117465;1186;24752;-56
2022/05/22 01:05:23;;;;;;;3.80;0.90;;;;;;;20.41;36.43;99785.21;117461;1186;21854;-51
2022/05/22 01:07:52;;;;;;;5.80;1.70;;;;;;;20.38;36.52;99784.91;117510;1186;23563;-51
2022/05/22 01:10:20;;;;;;;6.30;1.60;;;;;;;20.31;36.63;99783.52;117365;1186;23897;-51
2022/05/22 01:12:49;;;;;;;5.90;1.30;;;;;;;20.27;36.69;99783.11;117364;1185;21839;-56
2022/05/22 01:15:18;;;;;;;8.80;1.60;;;;;;;20.24;36.74;99779.73;117423;1185;23738;-51
2022/05/22 01:17:50;;;;;;;3.80;1.10;;;;;;;20.22;36.79;99779.27;117223;1185;22320;-52
2022/05/22 01:20:19;;;;;;;4.20;1.20;;;;;;;20.18;36.85;99779.37;117419;1186;23297;-51
2022/05/22 01:22:47;;;;;;;5.10;1.40;;;;;;;20.12;36.86;99780.05;117366;1185;25665;-54
2022/05/22 01:25:15;;;;;;;4.80;1.20;;;;;;;20.08;37.01;99778.02;117412;1185;24139;-56
2022/05/22 01:27:43;;;;;;;5.70;1.10;;;;;;;20.04;36.97;99776.48;117265;1186;21852;-51
2022/05/22 01:30:26;;;;;;;2.90;0.90;;;;;;;20.01;37.08;99775.77;117460;1185;23439;-55
2022/05/22 01:32:54;;;;;;;3.40;0.90;;;;;;;19.96;37.13;99777.16;117424;1182;21863;-51
2022/05/22 01:35:25;;;;;;;7.80;1.80;;;;;;;19.90;37.11;99772.67;117471;1184;23541;-51
2022/05/22 01:37:53;;;;;;;6.80;1.70;;;;;;;19.81;37.18;99772.30;117380;1185;21934;-52
2022/05/22 01:40:21;;;;;;;3.40;1.40;;;;;;;19.72;37.13;99764.98;117358;1185;21838;-56
2022/05/22 01:42:49;;;;;;;3.40;1.30;;;;;;;19.63;37.27;99764.68;117496;1185;21852;-52
2022/05/22 01:45:20;;;;;;;7.00;1.20;;;;;;;19.51;37.31;99762.17;117394;1185;24163;-51
2022/05/22 01:47:48;;;;;;;4.00;1.30;;;;;;;19.39;37.37;99761.63;117361;1180;22916;-51
2022/05/22 01:50:17;;;;;;;8.50;1.30;;;;;;;19.28;37.33;99753.73;117433;1185;23538;-52
2022/05/22 01:52:45;;;;;;;6.40;1.10;;;;;;;19.17;37.40;99753.98;117421;1185;23618;-51
2022/05/22 01:55:15;;;;;;;;;;;;;;;19.08;37.51;99766.09;117339;1185;23560;-51
2022/05/22 01:57:44;;;;;;;4.70;1.60;;;;;;;18.97;37.61;99767.80;117375;1186;21858;-56
2022/05/22 02:00:14;;;;;;;5.50;1.20;;;;;;;18.86;37.62;99773.85;117436;1185;21967;-52
2022/05/22 02:02:43;;;;;;;3.90;1.00;;;;;;;18.80;37.77;99776.33;117455;1186;21856;-51
2022/05/22 02:05:13;;;;;;;8.40;1.40;;;;;;;18.77;37.86;99773.64;117409;1185;21855;-55
2022/05/22 02:10:29;;;;;;;8.50;2.00;;;;;;;18.73;38.06;99787.73;117422;1185;23527;-56
2022/05/22 02:12:58;;;;;;;5.20;1.70;;;;;;;18.70;38.18;99791.80;117328;1185;23576;-50
2022/05/22 02:15:29;;;;;;;6.20;1.60;;;;;;;18.66;38.12;99794.34;117154;1186;22986;-50
2022/05/22 02:17:57;;;;;;;4.40;1.50;;;;;;;18.61;38.29;99792.28;117369;1185;24154;-56
2022/05/22 02:20:26;;;;;;;5.70;1.40;;;;;;;18.62;38.48;99785.13;117357;1185;24149;-55
2022/05/22 02:22:55;;;;;;;9.80;1.50;;;;;;;18.67;38.52;99779.71;117346;1185;21845;-56
2022/05/22 02:25:29;;;;;;;4.60;1.60;;;;;;;18.71;38.63;99781.77;117354;1185;23474;-56
2022/05/22 02:27:58;;;;;;;8.20;1.40;;;;;;;18.75;38.67;99778.23;117426;1184;24133;-50
2022/05/22 02:30:29;;;;;;;6.10;1.30;;;;;;;18.75;38.65;99776.95;117571;1184;23454;-56
2022/05/22 02:32:57;;;;;;;9.00;1.40;;;;;;;18.75;38.71;99769.70;117380;1185;21847;-56
2022/05/22 02:35:25;;;;;;;5.20;1.40;;;;;;;18.76;38.80;99770.20;117403;1184;23544;-56
2022/05/22 02:37:54;;;;;;;5.40;1.30;;;;;;;18.79;38.80;99764.98;117388;1186;23526;-56
2022/05/22 02:40:25;;;;;;;4.50;0.90;;;;;;;18.83;38.78;99767.42;117364;1176;22992;-51
2022/05/22 02:42:53;;;;;;;4.20;1.20;;;;;;;18.86;38.87;99767.25;117420;1185;21858;-56
2022/05/22 02:45:23;;;;;;;9.00;1.40;;;;;;;18.88;38.88;99769.98;117371;1185;22620;-50
2022/05/22 02:47:51;;;;;;;7.60;1.70;;;;;;;18.90;38.91;99767.95;117363;1184;21865;-56
2022/05/22 02:50:25;;;;;;;7.20;1.20;;;;;;;18.91;39.02;99768.77;117327;1185;24204;-56
2022/05/22 02:52:54;;;;;;;7.60;1.00;;;;;;;18.94;39.05;99773.08;117377;1184;21849;-55
2022/05/22 02:55:22;;;;;;;6.60;2.20;;;;;;;18.98;39.04;99765.77;117376;1185;22909;-56
2022/05/22 02:57:50;;;;;;;8.00;1.60;;;;;;;19.01;39.00;99760.94;117405;1185;23545;-56
2022/05/22 03:00:24;;;;;;;5.10;0.90;;;;;;;19.05;39.08;99756.64;117315;1185;22808;-55
2022/05/22 03:02:52;;;;;;;5.90;1.60;;;;;;;19.08;39.10;99752.23;117367;1183;21848;-55
2022/05/22 03:05:21;;;;;;;5.90;1.10;;;;;;;19.09;39.15;99756.58;117390;1185;21855;-50
2022/05/22 03:07:49;;;;;;;7.40;1.40;;;;;;;19.13;39.20;99756.23;117386;1184;21893;-56
2022/05/22 03:10:18;;;;;;;9.80;1.20;;;;;;;19.12;39.08;99753.18;117376;1185;23566;-55
2022/05/22 03:12:46;;;;;;;4.80;1.00;;;;;;;19.13;39.24;99754.60;117449;1185;23544;-53
2022/05/22 03:15:15;;;;;;;8.00;1.40;;;;;;;19.16;39.26;99755.48;117396;1182;23554;-54
2022/05/22 03:17:43;;;;;;;7.60;1.50;;;;;;;19.22;39.30;99756.23;117360;1185;23534;-54
2022/05/22 03:20:13;;;;;;;12.40;1.80;;;;;;;19.29;39.36;99759.71;117338;1185;23544;-53
2022/05/22 03:22:41;;;;;;;7.10;1.60;;;;;;;19.36;39.35;99762.90;117345;1186;21853;-51
2022/05/22 03:25:09;;;;;;;8.90;1.60;;;;;;;19.39;39.36;99764.47;117294;1186;22908;-55
2022/05/22 03:27:41;;;;;;;9.40;1.50;;;;;;;19.42;39.33;99763.43;117361;1185;22184;-56
2022/05/22 03:30:10;;;;;;;7.70;2.10;;;;;;;19.43;39.40;99759.26;117375;1185;23555;-55
2022/05/22 03:32:38;;;;;;;7.80;1.60;;;;;;;19.47;39.42;99759.71;117410;1185;21848;-50
2022/05/22 03:35:07;;;;;;;7.70;1.50;;;;;;;19.51;39.54;99758.08;117354;1185;22919;-56
2022/05/22 03:37:36;;;;;;;10.70;1.60;;;;;;;19.56;39.43;99756.38;117431;1184;21951;-55
2022/05/22 03:40:05;;;;;;;9.00;1.60;;;;;;;19.61;39.44;99761.20;117355;1184;23538;-55
2022/05/22 03:42:33;;;;;;;5.00;1.70;;;;;;;19.68;39.39;99760.46;117420;1185;21911;-56
2022/05/22 03:45:02;;;;;;;5.90;1.90;;;;;;;19.73;39.55;99763.50;117381;1185;23557;-50
2022/05/22 03:47:30;;;;;;;8.80;1.70;;;;;;;19.73;39.48;99765.48;117449;1184;23440;-55
2022/05/22 03:50:04;;;;;;;5.80;1.40;;;;;;;19.71;39.59;99760.64;117327;1186;23544;-56
2022/05/22 03:52:40;;;;;;;6.10;1.30;;;;;;;19.71;39.58;99762.73;117440;1186;22649;-51
2022/05/22 03:55:10;;;;;;;6.60;1.90;;;;;;;19.75;39.47;99763.95;117429;1184;22539;-51
2022/05/22 03:57:48;;;;;;;8.40;2.00;;;;;;;19.79;39.49;99766.90;117375;1185;23557;-56
2022/05/22 04:00:18;;;;;;;10.30;1.60;;;;;;;19.79;39.45;99772.63;117394;1185;23580;-56
2022/05/22 04:02:46;;;;;;;7.50;1.30;;;;;;;19.81;39.57;99771.08;117307;1181;22620;-56
2022/05/22 04:05:15;;;;;;;6.00;1.40;;;;;;;19.82;39.53;99773.31;117976;1185;23579;-55
2022/05/22 04:07:44;;;;;;;10.80;2.10;;;;;;;19.83;39.53;99778.41;117472;1185;22963;-50
2022/05/22 04:10:15;;;;;;;3.90;1.40;;;;;;;19.84;39.66;99777.47;117360;1184;23563;-49
2022/05/22 04:12:45;;;;;;;3.90;1.40;;;;;;;19.83;39.50;99775.77;117448;1186;21846;-50
2022/05/22 04:15:18;;;;;;;4.70;1.50;;;;;;;19.85;39.54;99780.27;117442;1185;23541;-50
2022/05/22 04:17:46;;;;;;;7.20;1.20;;;;;;;19.90;39.50;99775.17;117398;1185;21862;-56
2022/05/22 04:20:18;;;;;;;;;;;;;;;19.95;39.52;99776.34;117268;1182;22918;-56
2022/05/22 04:25:36;;;;;;;8.60;2.40;;;;;;;20.01;39.44;99779.50;117389;1185;22835;-55
2022/05/22 04:28:04;;;;;;;7.80;2.00;;;;;;;20.01;39.51;99776.97;117320;1185;22639;-56
2022/05/22 04:30:32;;;;;;;4.60;1.90;;;;;;;20.01;39.43;99777.16;117306;1188;21864;-56
2022/05/22 04:33:02;;;;;;;5.20;1.50;;;;;;;20.02;39.42;99781.59;117348;1185;23544;-56
2022/05/22 04:35:30;;;;;;;10.30;1.90;;;;;;;20.05;39.46;99786.05;117397;1185;21853;-56
2022/05/22 04:38:02;;;;;;;4.40;1.60;;;;;;;20.06;39.45;99784.69;117364;1185;23547;-56
2022/05/22 04:40:30;;;;;;;4.30;1.30;;;;;;;20.05;39.31;99781.20;117298;1184;22916;-57
2022/05/22 04:42:58;;;;;;;5.40;1.10;;;;;;;20.08;39.28;99776.94;117285;1185;23544;-56
2022/05/22 04:45:27;;;;;;;4.20;1.20;;;;;;;20.11;39.27;99770.33;117260;1185;22837;-50
2022/05/22 04:47:56;;;;;;;5.30;1.10;;;;;;;20.15;39.23;99762.45;117363;1181;22806;-51
2022/05/22 04:50:25;;;;;;;3.50;1.30;;;;;;;20.18;39.19;99760.79;117295;1185;23541;-55
2022/05/22 04:52:54;;;;;;;2.70;1.00;;;;;;;20.23;39.21;99765.32;117295;1185;21849;-56
2022/05/22 04:55:22;;;;;;;7.10;0.80;;;;;;;20.31;39.13;99769.63;117312;1185;21852;-51
2022/05/22 04:57:51;;;;;;;3.50;0.90;;;;;;;20.41;39.13;99768.68;117352;1185;23557;-58
2022/05/22 05:00:19;;;;;;;2.70;1.00;;;;;;;20.55;39.15;99769.18;117370;1185;23614;-52
2022/05/22 05:02:48;;;;;;;2.60;1.50;;;;;;;20.71;39.10;99764.81;117340;1185;21839;-57
2022/05/22 05:05:16;;;;;;;3.30;1.30;;;;;;;20.85;38.94;99763.02;117335;1184;21848;-51
2022/05/22 05:07:44;;;;;;;4.00;1.90;;;;;;;20.99;38.91;99760.02;117325;1185;22802;-57
2022/05/22 05:10:12;;;;;;;6.10;1.90;;;;;;;21.10;38.83;99755.17;117386;1185;23541;-57
2022/05/22 05:12:41;;;;;;;5.60;1.30;;;;;;;21.24;38.68;99752.98;117361;1185;23544;-52
2022/05/22 05:15:14;;;;;;;4.10;1.90;;;;;;;21.39;38.69;99752.00;117366;1185;21918;-51
2022/05/22 05:17:43;;;;;;;8.50;1.60;;;;;;;21.56;38.55;99750.35;117358;1185;21882;-57
2022/05/22 05:20:12;;;;;;;7.30;1.30;;;;;;;21.70;38.32;99755.13;117366;1185;21855;-57
2022/05/22 05:22:40;;;;;;;7.50;2.40;;;;;;;21.77;38.25;99757.86;117399;1185;21910;-51
2022/05/22 05:25:09;;;;;;;4.70;1.80;;;;;;;21.75;38.02;99761.77;117370;1185;21894;-56
2022/05/22 05:27:38;;;;;;;10.30;4.90;;;;;;;21.76;37.98;99756.52;117307;1185;21881;-57
2022/05/22 05:30:07;;;;;;;8.80;3.90;;;;;;;21.88;38.00;99754.83;117323;1186;23564;-57
2022/05/22 05:32:35;;;;;;;6.60;3.10;;;;;;;22.02;37.87;99752.02;117376;1185;21850;-53
2022/05/22 05:35:07;;;;;;;5.00;2.00;;;;;;;22.18;37.83;99755.23;117213;1185;23569;-57
2022/05/22 05:37:35;;;;;;;7.90;2.70;;;;;;;22.25;37.63;99752.36;117368;1186;21863;-52
2022/05/22 05:40:05;;;;;;;11.30;4.80;;;;;;;22.28;37.45;99751.29;117381;1186;23551;-52
2022/05/22 05:42:33;;;;;;;17.60;8.90;;;;;;;22.33;37.32;99750.20;117328;1185;22823;-53
2022/05/22 05:45:05;;;;;;;19.40;9.70;;;;;;;22.41;37.30;99750.88;117368;1185;23454;-54
2022/05/22 05:47:33;;;;;;;144.50;71.40;;;;;;;22.50;37.39;99749.41;117853;1185;21951;-56
2022/05/22 05:50:02;;;;;;;247.40;111.30;;;;;;;22.59;37.15;99746.63;117362;1185;22976;-56
2022/05/22 05:52:31;;;;;;;25.70;12.50;;;;;;;22.70;37.20;99742.56;117338;1185;21864;-51
2022/05/22 05:55:01;;;;;;;;;;;;;;;22.79;37.01;99737.65;117373;1185;21864;-56
2022/05/22 05:57:33;;;;;;;9.80;3.20;;;;;;;22.85;37.15;99735.09;117354;1185;23544;-56
2022/05/22 06:00:04;;;;;;;55.10;26.80;;;;;;;22.98;37.10;99732.13;117317;1185;23545;-56
2022/05/22 06:02:33;;;;;;;42.20;19.80;;;;;;;23.11;37.12;99733.33;117381;1185;23129;-51
2022/05/22 06:05:03;;;;;;;5.30;2.00;;;;;;;23.21;36.95;99731.48;117502;1183;24772;-56
2022/05/22 06:07:32;;;;;;;17.00;7.20;;;;;;;23.25;36.75;99731.76;117344;1185;23957;-56
2022/05/22 06:10:00;;;;;;;19.80;9.40;;;;;;;23.19;36.58;99730.04;117262;1185;23564;-56
2022/05/22 06:12:29;;;;;;;16.50;7.20;;;;;;;23.13;36.48;99732.83;117419;1185;22809;-52
2022/05/22 06:14:57;;;;;;;16.30;8.50;;;;;;;23.12;36.58;99733.80;117412;1184;23538;-57
2022/05/22 06:17:36;;;;;;;3.90;1.50;;;;;;;23.19;36.39;99733.61;117271;1182;22918;-56
2022/05/22 06:20:06;;;;;;;4.40;1.60;;;;;;;23.18;36.08;99732.95;117408;1185;22959;-56
2022/05/22 06:22:35;;;;;;;3.50;1.10;;;;;;;23.10;35.99;99729.83;117391;1185;22918;-51
2022/05/22 06:25:06;;;;;;;7.40;3.10;;;;;;;23.06;35.94;99726.22;117434;1185;22307;-56
2022/05/22 06:27:35;;;;;;;6.50;2.80;;;;;;;23.11;36.09;99723.87;117364;1184;21890;-56
2022/05/22 06:30:04;;;;;;;9.90;4.20;;;;;;;23.24;36.07;99719.84;117354;1186;21845;-51
2022/05/22 06:32:33;;;;;;;5.10;2.50;;;;;;;23.33;35.90;99715.59;117345;1185;22615;-56
2022/05/22 06:35:02;;;;;;;5.60;1.80;;;;;;;23.34;35.79;99715.53;117484;1184;23478;-52
2022/05/22 06:37:30;;;;;;;12.80;1.90;;;;;;;23.32;35.80;99713.16;117431;1185;21854;-54
2022/05/22 06:40:06;;;;;;;6.70;1.20;;;;;;;23.33;35.73;99708.97;117307;1185;22882;-57
2022/05/22 06:42:40;;;;;;;2.70;1.20;;;;;;;23.40;35.58;99704.66;117990;1185;21850;-55
2022/05/22 06:45:13;;;;;;;3.50;1.20;;;;;;;23.47;35.66;99702.50;117910;1184;23547;-56
2022/05/22 06:47:43;;;;;;;5.00;1.20;;;;;;;23.52;35.47;99698.58;117847;1186;22802;-56
2022/05/22 06:50:14;;;;;;;5.30;1.20;;;;;;;23.52;35.42;99697.36;117738;1184;22607;-52
2022/05/22 06:52:43;;;;;;;3.90;1.10;;;;;;;23.50;35.47;99695.34;117747;1184;23438;-53
2022/05/22 06:55:12;;;;;;;4.60;1.20;;;;;;;23.49;35.49;99698.97;117812;1185;22029;-53
2022/05/22 06:57:43;;;;;;;4.00;1.30;;;;;;;23.52;35.32;99699.43;117811;1186;21862;-52
2022/05/22 07:00:15;;;;;;;4.20;1.30;;;;;;;23.53;35.22;99693.80;117748;1185;21842;-53
2022/05/22 07:02:43;;;;;;;3.10;1.10;;;;;;;23.58;35.36;99692.39;117640;1185;22967;-53
2022/05/22 07:05:12;;;;;;;3.20;0.80;;;;;;;23.61;35.28;99684.42;117360;1182;22650;-52
2022/05/22 07:07:41;;;;;;;5.60;1.30;;;;;;;23.59;35.04;99680.33;117409;1184;21965;-57
2022/05/22 07:10:10;;;;;;;7.20;1.50;;;;;;;23.53;34.95;99682.27;117778;1184;22786;-57
2022/05/22 07:12:39;;;;;;;2.80;1.40;;;;;;;23.46;35.15;99680.39;117345;1185;22719;-53
2022/05/22 07:15:10;;;;;;;3.60;1.10;;;;;;;23.47;35.21;99675.16;117266;1185;23541;-54
2022/05/22 07:17:38;;;;;;;4.30;0.80;;;;;;;23.58;35.20;99669.83;117448;1184;21948;-54
2022/05/22 07:20:07;;;;;;;5.00;1.30;;;;;;;23.76;35.22;99668.12;117370;1185;23541;-54
2022/05/22 07:22:35;;;;;;;5.90;0.80;;;;;;;23.96;35.19;99663.63;117509;1185;21890;-54
2022/05/22 07:25:06;;;;;;;2.10;0.80;;;;;;;24.11;35.20;99662.45;117266;1185;23556;-52
2022/05/22 07:27:34;;;;;;;3.40;1.00;;;;;;;24.28;35.27;99658.23;117368;1185;23461;-56
2022/05/22 07:30:03;;;;;;;2.80;0.60;;;;;;;24.45;35.21;99654.34;117363;1185;23557;-54
2022/05/22 07:32:31;;;;;;;3.30;0.60;;;;;;;24.63;35.28;99651.25;117364;1185;24152;-57
2022/05/22 07:34:59;;;;;;;2.20;1.00;;;;;;;24.83;35.09;99643.20;117330;1185;22916;-58
2022/05/22 07:37:28;;;;;;;2.40;0.90;;;;;;;25.05;35.07;99640.46;117430;1184;21902;-58
2022/05/22 07:39:56;;;;;;;6.50;1.10;;;;;;;25.24;35.00;99637.45;117340;1184;23633;-57
2022/05/22 07:42:25;;;;;;;5.00;0.80;;;;;;;25.46;34.98;99635.41;117386;1185;23542;-55
2022/05/22 07:44:53;;;;;;;7.70;1.30;;;;;;;25.63;34.75;99629.09;117331;1182;22643;-57
2022/05/22 07:47:21;;;;;;;1.40;0.70;;;;;;;25.74;34.69;99631.85;117390;1185;23624;-58
2022/05/22 07:52:39;;;;;;;7.20;0.80;;;;;;;25.89;34.24;99628.27;117414;1185;23566;-58
2022/05/22 07:55:15;;;;;;;6.80;0.70;;;;;;;25.97;34.11;99621.61;117366;1185;23465;-57
2022/05/22 07:57:45;;;;;;;5.40;0.80;;;;;;;26.17;34.22;99618.59;117361;1185;23556;-57
2022/05/22 08:00:18;;;;;;;4.00;0.70;;;;;;;26.33;34.03;99614.25;117417;1185;23534;-58
2022/05/22 08:02:47;;;;;;;5.50;0.80;;;;;;;26.49;34.00;99607.27;117385;1186;21839;-57
2022/05/22 08:05:17;;;;;;;3.50;0.70;;;;;;;26.59;33.88;99604.21;117420;1185;23012;-54
2022/05/22 08:07:45;;;;;;;4.70;0.80;;;;;;;26.61;33.79;99598.83;117445;1185;21851;-57
2022/05/22 08:10:14;;;;;;;5.30;0.80;;;;;;;26.58;33.74;99597.05;117348;1184;23569;-56
2022/05/22 08:12:47;;;;;;;44.20;4.70;;;;;;;26.73;33.79;99600.23;117360;1185;21968;-54
2022/05/22 08:15:19;;;;;;;6.00;0.90;;;;;;;26.97;33.76;99596.77;117427;1185;21840;-54
2022/05/22 08:17:47;;;;;;;6.10;0.70;;;;;;;27.23;33.63;99591.82;117365;1185;22071;-57
2022/05/22 08:20:17;;;;;;;5.10;0.80;;;;;;;27.32;33.43;99588.95;117417;1184;23638;-57
2022/05/22 08:22:58;;;;;;;3.30;0.70;;;;;;;27.32;33.28;99582.80;117286;1182;23547;-57
2022/05/22 08:25:27;;;;;;;3.90;0.60;;;;;;;27.34;33.21;99578.54;117405;1185;21856;-57
2022/05/22 08:27:56;;;;;;;3.70;0.70;;;;;;;27.40;33.15;99581.52;117333;1186;22618;-57
2022/05/22 08:30:26;;;;;;;2.90;0.80;;;;;;;27.40;32.90;99575.95;117363;1184;21894;-54
2022/05/22 08:32:54;;;;;;;6.00;0.80;;;;;;;27.28;32.66;99573.21;117334;1185;23630;-56
2022/05/22 08:35:31;;;;;;;3.20;1.10;;;;;;;27.20;32.71;99569.81;117304;1185;21853;-53
2022/05/22 08:37:59;;;;;;;2.70;0.60;;;;;;;27.19;32.64;99561.42;117313;1185;22331;-57
2022/05/22 08:40:38;;;;;;;2.10;0.70;;;;;;;27.35;32.58;99562.97;117452;1185;23623;-53
2022/05/22 08:43:29;;;;;;;7.60;1.20;;;;;;;27.56;32.58;99561.13;117343;1186;23544;-56
2022/05/22 08:46:14;;;;;;;1.40;0.60;;;;;;;27.57;32.43;99558.89;117286;1185;22642;-54
2022/05/22 08:48:44;;;;;;;7.40;1.10;;;;;;;27.54;32.15;99545.48;117281;1185;23438;-56
2022/05/22 08:51:19;;;;;;;1.80;0.70;;;;;;;27.54;32.06;99541.55;117325;1180;22936;-57
2022/05/22 08:53:51;;;;;;;2.50;0.60;;;;;;;27.46;32.04;99548.20;117313;1185;21870;-55
2022/05/22 08:59:21;;;;;;;;;;;;;;;27.60;32.30;99530.16;117371;1185;23573;-57
2022/05/22 09:02:15;;;;;;;4.90;0.90;;;;;;;27.70;32.04;99532.04;117292;1185;22569;-57
2022/05/22 09:04:45;;;;;;;2.70;1.00;;;;;;;27.69;31.82;99535.72;117275;1185;23553;-57
2022/05/22 09:07:29;;;;;;;2.00;0.60;;;;;;;27.69;31.81;99523.71;117261;1186;21851;-58
2022/05/22 09:10:12;;;;;;;4.30;1.10;;;;;;;27.80;31.87;99516.88;117389;1185;23637;-55
2022/05/22 09:12:58;;;;;;;14.30;1.30;;;;;;;27.94;31.82;99518.86;117347;1185;23466;-56
2022/05/22 09:16:02;;;;;;;7.70;1.40;;;;;;;28.08;31.60;99511.70;117323;1181;23544;-54
2022/05/22 09:18:36;;;;;;;6.90;1.00;;;;;;;28.11;31.51;99512.20;117426;1185;23563;-58
2022/05/22 09:21:16;;;;;;;8.10;1.40;;;;;;;28.09;31.36;99508.02;117453;1185;23541;-57
2022/05/22 09:24:11;;;;;;;35.60;3.70;;;;;;;27.98;31.28;99509.10;117371;1185;23847;-53
2022/05/22 09:26:43;;;;;;;7.00;1.20;;;;;;;27.91;31.03;99507.61;117423;1185;21853;-55
2022/05/22 09:29:33;;;;;;;13.40;1.10;;;;;;;27.98;31.06;99497.92;117356;1185;24000;-56
2022/05/22 09:32:07;;;;;;;5.80;1.20;;;;;;;27.99;30.91;99500.33;117253;1187;21855;-52
2022/05/22 09:34:59;;;;;;;5.40;1.10;;;;;;;27.92;30.92;99495.42;117385;1185;22178;-56
2022/05/22 09:37:46;;;;;;;5.00;1.00;;;;;;;28.06;31.04;99489.61;117322;1185;24143;-53
2022/05/22 09:40:21;;;;;;;4.30;0.60;;;;;;;28.32;30.94;99492.48;117314;1185;24297;-55
2022/05/22 09:43:16;;;;;;;7.40;0.80;;;;;;;28.40;30.88;99492.17;117225;1186;21855;-54
2022/05/22 09:45:51;;;;;;;9.40;1.10;;;;;;;28.41;30.46;99483.45;117422;1186;23545;-55
2022/05/22 09:48:38;;;;;;;7.10;1.10;;;;;;;28.42;30.13;99480.76;117382;1185;21852;-58
2022/05/22 09:51:22;;;;;;;2.10;1.00;;;;;;;28.39;30.40;99484.38;117521;1185;23675;-54
2022/05/22 09:53:56;;;;;;;4.80;0.50;;;;;;;28.37;30.33;99476.27;117377;1186;21942;-57
2022/05/22 09:56:55;;;;;;;2.10;0.60;;;;;;;28.42;30.41;99474.07;117382;1184;23648;-57
2022/05/22 10:00:08;;;;;;;4.00;0.80;;;;;;;28.52;30.51;99474.02;117426;1185;21853;-57
2022/05/22 10:02:53;;;;;;;2.70;0.80;;;;;;;28.64;30.39;99466.80;117280;1185;21851;-57
2022/05/22 10:05:44;;;;;;;7.40;1.30;;;;;;;28.82;30.10;99465.77;117489;1185;23544;-54
2022/05/22 10:08:25;;;;;;;1.70;0.70;;;;;;;28.83;30.11;99471.36;117405;1185;22894;-57
2022/05/22 10:11:19;;;;;;;5.70;0.90;;;;;;;28.77;29.78;99468.23;117361;1185;23663;-57
2022/05/22 10:14:10;;;;;;;1.70;0.60;;;;;;;28.76;29.70;99462.67;117368;1186;23544;-54
2022/05/22 10:17:30;;;;;;;12.40;1.10;;;;;;;28.86;29.72;99463.13;117341;1189;21849;-55
2022/05/22 10:20:19;;;;;;;2.30;0.50;;;;;;;28.98;29.77;99458.51;117285;1185;23547;-57
2022/05/22 10:23:02;;;;;;;3.40;1.10;;;;;;;29.20;29.73;99452.70;117255;1182;22944;-54
2022/05/22 10:25:54;;;;;;;7.10;0.90;;;;;;;29.36;29.46;99456.81;117337;1185;22620;-54
2022/05/22 10:28:24;;;;;;;5.80;0.90;;;;;;;29.44;29.16;99457.84;117275;1184;22919;-54
2022/05/22 10:31:13;;;;;;;9.20;1.20;;;;;;;29.34;29.24;99457.38;117359;1185;21886;-53
2022/05/22 10:34:24;;;;;;;5.10;1.30;;;;;;;29.24;29.16;99455.54;117411;1185;21884;-54
2022/05/22 10:36:56;;;;;;;1.30;0.50;;;;;;;29.27;29.07;99457.98;117239;1184;22897;-53
2022/05/22 10:39:25;;;;;;;4.00;0.90;;;;;;;29.28;29.20;99449.89;117309;1185;21854;-54
2022/05/22 10:45:22;;;;;;;10.30;1.10;;;;;;;29.27;28.79;99450.52;117216;1186;25336;-54
2022/05/22 10:47:54;;;;;;;16.00;1.90;;;;;;;29.50;28.53;99446.86;117006;1187;23574;-54
2022/05/22 10:50:27;;;;;;;3.00;0.70;;;;;;;29.65;28.27;99444.77;117234;1186;22616;-55
2022/05/22 10:52:55;;;;;;;13.20;1.40;;;;;;;29.54;28.04;99447.54;117215;1182;21853;-53
2022/05/22 10:55:31;;;;;;;8.80;1.20;;;;;;;29.43;28.29;99439.90;116978;1187;23571;-54
2022/05/22 10:58:02;;;;;;;8.50;1.10;;;;;;;29.27;28.19;99445.55;117236;1190;23542;-52
2022/05/22 11:00:31;;;;;;;5.40;1.00;;;;;;;29.11;28.21;99438.03;117227;1186;21854;-52
2022/05/22 11:03:13;;;;;;;3.80;0.90;;;;;;;29.04;28.35;99442.50;117267;1186;23602;-52
2022/05/22 11:05:49;;;;;;;13.60;1.20;;;;;;;29.15;28.06;99442.08;117304;1186;22920;-54
2022/05/22 11:08:34;;;;;;;4.80;0.70;;;;;;;29.12;27.26;99437.90;117240;1186;22939;-55
2022/05/22 11:11:19;;;;;;;12.20;1.60;;;;;;;29.09;27.26;99430.58;117097;1187;22838;-54
2022/05/22 11:13:48;;;;;;;10.40;0.70;;;;;;;29.15;26.81;99435.42;117253;1185;22816;-53
2022/05/22 11:16:25;;;;;;;3.70;0.50;;;;;;;29.07;26.93;99437.84;117340;1186;21889;-54
2022/05/22 11:19:11;;;;;;;8.70;1.20;;;;;;;28.83;27.13;99437.81;117308;1186;23371;-53
2022/05/22 11:22:04;;;;;;;3.50;0.90;;;;;;;28.56;26.73;99440.37;117234;1184;22642;-55
2022/05/22 11:24:58;;;;;;;5.40;0.90;;;;;;;28.19;26.66;99433.62;117339;1188;22026;-54
2022/05/22 11:28:04;;;;;;;4.50;0.60;;;;;;;28.05;27.07;99437.52;117267;1182;21916;-54
2022/05/22 11:30:42;;;;;;;3.10;0.60;;;;;;;28.05;27.22;99443.48;117228;1186;23548;-54
2022/05/22 11:33:41;;;;;;;5.60;0.60;;;;;;;28.30;27.28;99439.39;117111;1186;23578;-55
2022/05/22 11:36:12;;;;;;;7.00;0.90;;;;;;;28.71;27.27;99437.42;117079;1186;22808;-54
2022/05/22 11:39:18;;;;;;;1.00;0.50;;;;;;;28.93;27.44;99428.49;117299;1186;22616;-54
2022/05/22 11:42:01;;;;;;;4.90;1.20;;;;;;;28.86;26.99;99431.52;117359;1182;23682;-54
2022/05/22 11:44:41;;;;;;;5.90;0.70;;;;;;;28.89;26.81;99435.35;117356;1185;22627;-54
2022/05/22 11:47:28;;;;;;;3.60;0.90;;;;;;;28.92;26.62;99435.41;117338;1185;23766;-54
2022/05/22 11:50:02;;;;;;;4.70;0.60;;;;;;;28.83;26.49;99434.37;117286;1183;22809;-54
2022/05/22 11:52:55;;;;;;;2.10;0.60;;;;;;;28.86;26.95;99431.17;117323;1183;22916;-54
2022/05/22 11:55:29;;;;;;;8.00;1.00;;;;;;;28.99;26.90;99429.30;117300;1185;22614;-55
2022/05/22 11:58:15;;;;;;;3.60;0.80;;;;;;;29.01;26.36;99434.36;117316;1184;21887;-55
2022/05/22 12:00:57;;;;;;;4.30;0.50;;;;;;;28.98;26.58;99437.77;117329;1185;24081;-54
2022/05/22 12:03:34;;;;;;;4.00;0.60;;;;;;;28.79;26.07;99442.16;117305;1181;22812;-54
2022/05/22 12:06:24;;;;;;;3.20;1.10;;;;;;;28.69;26.27;99451.55;117342;1185;23547;-55
2022/05/22 12:09:05;;;;;;;5.20;0.90;;;;;;;28.75;26.54;99446.22;117394;1185;21909;-53
2022/05/22 12:12:02;;;;;;;6.90;0.90;;;;;;;28.72;26.44;99445.58;117325;1185;24003;-56